Time;durP1;ratioP1;P1;durP2;ratioP2;P2;SDS_P1;SDS_P2;PMS_P1;PMS_P2;Temp;Humidity;BMP_temperature;BMP_pressure;BME280_temperature;BME280_humidity;BME280_pressure;Samples;Min_cycle;Max_cycle;Signal;HPM_P1;HPM_P2
2021/12/27 00:01:14;;;;;;;21.37;10.20;;;;;;;1.43;52.37;99618.03;4315297;33;34470;-88
2021/12/27 00:03:43;;;;;;;27.70;11.05;;;;;;;0.95;53.59;99620.13;4328271;33;33772;-90
2021/12/27 00:06:11;;;;;;;19.80;9.75;;;;;;;1.02;53.66;99616.62;4316153;33;32016;-90
2021/12/27 00:08:41;;;;;;;24.48;9.73;;;;;;;1.23;52.81;99616.44;4316140;33;34063;-89
2021/12/27 00:11:12;;;;;;;21.52;9.88;;;;;;;1.07;53.61;99614.84;4316387;33;32871;-88
2021/12/27 00:13:40;;;;;;;17.52;9.60;;;;;;;1.32;53.05;99606.84;4315838;33;33168;-88
2021/12/27 00:16:08;;;;;;;18.52;8.90;;;;;;;1.45;52.04;99613.66;4321535;33;33117;-88
2021/12/27 00:18:37;;;;;;;15.75;8.30;;;;;;;1.31;52.30;99603.38;4315636;33;32987;-88
2021/12/27 00:21:05;;;;;;;24.20;9.35;;;;;;;1.51;51.40;99588.41;4316045;33;33268;-88
2021/12/27 00:23:33;;;;;;;18.58;10.52;;;;;;;1.50;51.38;99594.50;4315885;33;32315;-88
2021/12/27 00:26:01;;;;;;;22.98;9.80;;;;;;;1.28;52.56;99604.28;4316981;33;33014;-91
2021/12/27 00:28:48;;;;;;;18.30;9.70;;;;;;;1.23;52.80;99600.84;4351339;32;32742;-91
2021/12/27 00:31:38;;;;;;;16.85;8.90;;;;;;;1.35;52.79;99604.22;4353067;32;33192;-92
2021/12/27 00:34:05;;;;;;;20.52;8.25;;;;;;;1.48;52.04;99605.81;4351095;32;32975;-92
2021/12/27 00:37:12;;;;;;;19.37;8.43;;;;;;;1.20;52.58;99603.47;4355577;32;32221;-92
2021/12/27 00:39:51;;;;;;;16.62;9.02;;;;;;;1.10;53.60;99604.44;4338792;33;33853;-92
2021/12/27 00:42:42;;;;;;;20.42;8.68;;;;;;;1.18;53.22;99615.62;4303768;33;34528;-93
2021/12/27 00:45:21;;;;;;;20.27;8.85;;;;;;;1.35;52.70;99606.81;4326246;33;34531;-92
2021/12/27 00:48:15;;;;;;;16.60;8.77;;;;;;;1.28;52.36;99609.47;4344288;32;32581;-93
2021/12/27 00:50:55;;;;;;;16.85;9.38;;;;;;;1.10;52.96;99614.84;4317583;33;32423;-93
2021/12/27 00:53:46;;;;;;;22.85;8.25;;;;;;;1.26;52.70;99618.16;4343008;33;33578;-93
2021/12/27 00:56:25;;;;;;;15.93;7.87;;;;;;;1.25;52.61;99609.50;4335945;33;32756;-91
2021/12/27 00:59:16;;;;;;;20.35;7.43;;;;;;;0.99;53.66;99603.66;4364140;32;32419;-89
2021/12/27 01:01:56;;;;;;;19.00;8.70;;;;;;;0.85;54.04;99598.56;4331727;32;32641;-91
2021/12/27 01:04:48;;;;;;;20.02;7.70;;;;;;;1.00;53.13;99595.00;4358448;32;33085;-91
2021/12/27 01:07:32;;;;;;;16.98;8.00;;;;;;;1.22;51.93;99599.13;4344921;32;33183;-90
2021/12/27 01:11:00;;;;;;;14.82;8.43;;;;;;;1.18;52.30;99589.59;4322946;33;32105;-90
2021/12/27 01:13:47;;;;;;;16.08;7.65;;;;;;;1.24;51.86;99596.53;4309477;33;32447;-88
2021/12/27 01:16:15;;;;;;;16.33;8.40;;;;;;;1.23;52.15;99611.22;4309531;33;33228;-88
2021/12/27 01:18:48;;;;;;;21.75;10.38;;;;;;;1.27;52.31;99607.72;4313677;33;32965;-87
2021/12/27 01:21:19;;;;;;;22.00;8.40;;;;;;;1.27;52.68;99612.94;4323188;33;32584;-87
2021/12/27 01:23:48;;;;;;;19.17;8.30;;;;;;;1.05;53.98;99600.16;4324616;33;32753;-87
2021/12/27 01:26:16;;;;;;;20.27;8.10;;;;;;;1.21;53.67;99610.41;4314110;33;32842;-87
2021/12/27 01:28:44;;;;;;;20.48;9.55;;;;;;;1.46;52.67;99602.34;4324713;33;35280;-87
2021/12/27 01:31:13;;;;;;;20.62;8.75;;;;;;;0.94;53.87;99601.09;4311304;33;32403;-87
2021/12/27 01:33:40;;;;;;;15.90;8.23;;;;;;;0.98;53.97;99588.94;4311513;33;33295;-88
2021/12/27 01:36:10;;;;;;;19.40;8.95;;;;;;;1.17;53.38;99590.50;4324175;33;33212;-87
2021/12/27 01:38:39;;;;;;;19.77;8.80;;;;;;;1.26;52.89;99584.34;4323263;33;33095;-87
2021/12/27 01:41:10;;;;;;;16.60;7.78;;;;;;;1.23;53.19;99589.56;4324641;33;31915;-87
2021/12/27 01:43:39;;;;;;;19.35;7.72;;;;;;;1.04;53.90;99588.87;4324421;33;32461;-87
2021/12/27 01:46:21;;;;;;;16.05;8.77;;;;;;;1.02;54.50;99595.84;4324093;33;32941;-87
2021/12/27 01:48:55;;;;;;;19.62;8.40;;;;;;;1.07;54.24;99593.19;4323501;33;32834;-87
2021/12/27 01:51:29;;;;;;;21.10;8.45;;;;;;;1.23;53.40;99585.22;4323436;33;32342;-86
2021/12/27 01:53:58;;;;;;;18.05;8.15;;;;;;;0.89;55.00;99584.66;4311175;33;32959;-87
2021/12/27 01:56:26;;;;;;;24.92;8.65;;;;;;;0.96;54.86;99590.69;4324599;33;33652;-86
2021/12/27 01:58:55;;;;;;;15.98;8.77;;;;;;;0.72;55.86;99586.56;4322984;33;32985;-88
2021/12/27 02:01:24;;;;;;;19.80;8.77;;;;;;;1.10;54.89;99595.78;4311954;33;32465;-90
2021/12/27 02:04:27;;;;;;;17.42;8.27;;;;;;;1.08;54.96;99595.78;4325624;33;32582;-92
2021/12/27 02:07:08;;;;;;;17.58;9.05;;;;;;;1.13;55.11;99591.41;4344542;32;32818;-91
2021/12/27 02:10:02;;;;;;;18.00;7.72;;;;;;;1.16;55.08;99588.78;4335526;32;32762;-88
2021/12/27 02:12:31;;;;;;;16.17;8.20;;;;;;;1.24;54.56;99592.19;4315391;33;32618;-88
2021/12/27 02:15:03;;;;;;;20.62;8.63;;;;;;;1.26;54.40;99587.81;4326884;33;32518;-87
2021/12/27 02:17:31;;;;;;;16.62;8.73;;;;;;;0.92;54.64;99583.78;4339213;33;33463;-87
2021/12/27 02:19:58;;;;;;;13.50;6.65;;;;;;;1.09;54.64;99589.69;4326357;33;33417;-87
2021/12/27 02:22:28;;;;;;;14.43;7.43;;;;;;;1.12;54.18;99586.22;4313651;33;32074;-87
2021/12/27 02:24:56;;;;;;;18.67;7.68;;;;;;;0.80;54.44;99587.34;4337901;33;32379;-87
2021/12/27 02:27:24;;;;;;;14.35;7.00;;;;;;;1.00;54.01;99589.81;4326785;33;32930;-87
2021/12/27 02:29:51;;;;;;;16.27;7.57;;;;;;;0.64;54.78;99589.19;4319131;33;34188;-87
2021/12/27 02:32:19;;;;;;;16.48;7.55;;;;;;;1.06;53.83;99581.06;4325322;33;33630;-87
2021/12/27 02:34:47;;;;;;;13.13;6.50;;;;;;;1.11;53.41;99584.50;4326679;33;33028;-90
2021/12/27 02:37:16;;;;;;;17.30;7.75;;;;;;;1.23;53.47;99585.22;4326065;33;33289;-89
2021/12/27 02:39:45;;;;;;;16.48;8.38;;;;;;;0.82;54.96;99577.81;4325119;33;33128;-90
2021/12/27 02:42:19;;;;;;;15.43;8.20;;;;;;;0.85;55.27;99577.75;4327412;32;32333;-90
2021/12/27 02:44:55;;;;;;;14.13;7.32;;;;;;;0.88;55.50;99576.88;4340737;32;32817;-91
2021/12/27 02:47:35;;;;;;;21.50;7.95;;;;;;;0.80;56.00;99574.34;4339928;32;33726;-91
2021/12/27 02:50:39;;;;;;;20.33;7.07;;;;;;;0.90;55.88;99575.13;4331074;33;32883;-91
2021/12/27 02:53:30;;;;;;;13.82;7.22;;;;;;;0.92;55.69;99573.38;4317883;33;32402;-91
2021/12/27 02:56:09;;;;;;;13.98;6.62;;;;;;;0.97;55.79;99584.63;4329706;33;32589;-91
2021/12/27 02:58:57;;;;;;;14.52;7.00;;;;;;;0.83;56.45;99576.06;4330062;33;32946;-91
2021/12/27 03:02:04;;;;;;;13.20;6.45;;;;;;;0.96;55.99;99575.97;4324487;33;33246;-91
2021/12/27 03:04:46;;;;;;;15.13;7.35;;;;;;;1.18;55.33;99568.81;4342208;32;33313;-91
2021/12/27 03:07:39;;;;;;;17.10;7.05;;;;;;;0.95;55.67;99576.84;4355834;32;33953;-92
2021/12/27 03:10:28;;;;;;;13.15;6.53;;;;;;;0.93;56.19;99575.97;4320330;32;33625;-92
2021/12/27 03:13:40;;;;;;;13.13;6.80;;;;;;;1.19;55.60;99570.56;4345914;32;33694;-93
2021/12/27 03:16:20;;;;;;;12.10;6.03;;;;;;;1.38;54.93;99557.38;4370577;32;32119;-92
2021/12/27 03:19:16;;;;;;;13.13;6.53;;;;;;;1.30;54.37;99559.19;4342383;32;32824;-91
2021/12/27 03:22:03;;;;;;;12.95;6.60;;;;;;;1.33;54.35;99559.13;4340350;33;32320;-91
2021/12/27 03:24:48;;;;;;;15.23;6.53;;;;;;;1.37;54.20;99553.03;4338998;33;32731;-90
2021/12/27 03:27:17;;;;;;;16.05;6.80;;;;;;;1.44;53.71;99547.75;4337953;33;32090;-93
2021/12/27 03:30:15;;;;;;;16.67;7.30;;;;;;;1.51;53.56;99553.72;4358590;32;32901;-91
2021/12/27 03:32:55;;;;;;;13.90;6.72;;;;;;;1.53;53.18;99555.47;4339582;33;32958;-92
2021/12/27 03:36:04;;;;;;;16.60;7.20;;;;;;;1.15;53.87;99558.44;4330542;33;32770;-90
2021/12/27 03:38:37;;;;;;;13.75;6.75;;;;;;;1.07;54.48;99555.06;4327935;33;31903;-90
2021/12/27 03:41:09;;;;;;;11.65;6.53;;;;;;;1.32;54.00;99549.59;4339360;33;33624;-90
2021/12/27 03:43:42;;;;;;;13.27;6.35;;;;;;;1.10;54.78;99552.44;4325397;33;33021;-87
2021/12/27 03:46:10;;;;;;;14.40;6.60;;;;;;;1.27;54.60;99545.31;4326582;33;33649;-88
2021/12/27 03:48:38;;;;;;;14.50;6.20;;;;;;;1.21;55.02;99553.19;4324619;33;33563;-88
2021/12/27 03:51:06;;;;;;;16.02;6.85;;;;;;;1.09;55.37;99560.22;4338686;33;34421;-88
2021/12/27 03:53:34;;;;;;;13.77;5.97;;;;;;;0.90;56.27;99554.31;4326534;33;33886;-88
2021/12/27 03:56:03;;;;;;;14.25;5.50;;;;;;;1.20;55.35;99559.28;4317641;33;32727;-88
2021/12/27 03:58:44;;;;;;;12.48;5.47;;;;;;;1.28;55.02;99557.47;4313675;33;33671;-88
2021/12/27 04:01:16;;;;;;;10.52;5.18;;;;;;;1.40;54.29;99553.84;4313858;33;33092;-88
2021/12/27 04:04:04;;;;;;;10.93;5.55;;;;;;;1.32;53.97;99552.22;4331600;33;35806;-89
2021/12/27 04:06:50;;;;;;;10.65;4.93;;;;;;;1.08;54.49;99556.78;4330816;33;35667;-89
2021/12/27 04:09:37;;;;;;;11.40;5.50;;;;;;;1.21;54.17;99550.59;4330898;33;34036;-89
2021/12/27 04:12:23;;;;;;;11.63;5.95;;;;;;;1.36;54.09;99553.91;4330860;33;35472;-89
2021/12/27 04:15:10;;;;;;;13.55;6.15;;;;;;;1.39;53.72;99561.69;4320183;33;33155;-89
2021/12/27 04:17:37;;;;;;;7.70;5.18;;;;;;;1.19;54.22;99567.94;4328232;33;32003;-89
2021/12/27 04:20:06;;;;;;;15.70;6.00;;;;;;;1.27;54.20;99560.06;4319957;33;32461;-89
2021/12/27 04:22:34;;;;;;;14.77;7.30;;;;;;;1.37;54.00;99550.41;4329137;33;33959;-89
2021/12/27 04:25:15;;;;;;;10.73;5.22;;;;;;;1.16;54.55;99562.78;4331440;33;33419;-89
2021/12/27 04:27:44;;;;;;;12.13;5.60;;;;;;;1.39;53.97;99551.28;4327547;33;34052;-89
2021/12/27 04:30:12;;;;;;;12.52;6.03;;;;;;;1.17;54.54;99553.22;4324867;33;32750;-89
2021/12/27 04:32:40;;;;;;;13.15;7.40;;;;;;;1.16;54.18;99557.56;4328804;33;33281;-88
2021/12/27 04:35:09;;;;;;;10.40;6.45;;;;;;;1.42;53.67;99548.63;4315181;33;33416;-87
2021/12/27 04:37:37;;;;;;;13.93;6.55;;;;;;;1.49;53.85;99550.31;4316533;33;33925;-87
2021/12/27 04:40:08;;;;;;;14.73;6.03;;;;;;;1.40;54.07;99548.66;4326178;33;33334;-87
2021/12/27 04:42:38;;;;;;;15.40;6.55;;;;;;;1.54;54.02;99548.50;4330264;33;33445;-87
2021/12/27 04:45:07;;;;;;;13.70;6.32;;;;;;;1.61;53.67;99550.16;4316626;33;33275;-87
2021/12/27 04:47:36;;;;;;;13.50;6.45;;;;;;;1.86;52.84;99540.31;4317108;33;32330;-89
2021/12/27 04:50:07;;;;;;;13.07;7.28;;;;;;;1.45;53.73;99546.88;4315725;33;32148;-89
2021/12/27 04:52:35;;;;;;;12.85;6.43;;;;;;;1.16;54.93;99552.37;4326776;33;32681;-89
2021/12/27 04:55:04;;;;;;;20.25;6.25;;;;;;;1.43;54.35;99548.63;4326687;33;33523;-88
2021/12/27 04:57:32;;;;;;;17.10;7.12;;;;;;;1.46;54.44;99552.91;4316513;33;33392;-89
2021/12/27 05:00:00;;;;;;;17.33;7.62;;;;;;;1.44;54.22;99555.56;4314475;33;32364;-89
2021/12/27 05:02:28;;;;;;;15.15;7.85;;;;;;;1.36;54.93;99553.91;4325959;33;32517;-88
2021/12/27 05:04:56;;;;;;;13.35;6.43;;;;;;;1.54;54.20;99554.56;4329072;33;32547;-88
2021/12/27 05:07:23;;;;;;;14.38;7.28;;;;;;;1.53;54.20;99557.19;4314510;33;32716;-88
2021/12/27 05:09:51;;;;;;;14.95;5.72;;;;;;;1.32;55.48;99552.22;4329152;33;32221;-89
2021/12/27 05:12:19;;;;;;;15.02;6.80;;;;;;;1.60;54.63;99555.38;4312627;33;32760;-88
2021/12/27 05:14:47;;;;;;;17.73;6.10;;;;;;;1.49;55.01;99558.09;4315969;33;33009;-89
2021/12/27 05:17:14;;;;;;;15.55;7.10;;;;;;;1.42;55.34;99552.09;4325488;33;33826;-89
2021/12/27 05:19:43;;;;;;;16.70;7.28;;;;;;;1.55;55.20;99552.81;4328470;33;34312;-89
2021/12/27 05:22:11;;;;;;;19.87;7.53;;;;;;;1.36;55.69;99546.97;4327097;33;32705;-89
2021/12/27 05:24:39;;;;;;;11.85;6.57;;;;;;;1.52;55.33;99551.13;4317835;33;32875;-88
2021/12/27 05:27:09;;;;;;;17.70;7.47;;;;;;;1.46;55.64;99551.19;4327041;33;32856;-89
2021/12/27 05:29:37;;;;;;;16.85;6.62;;;;;;;1.54;55.79;99553.72;4321583;33;32255;-88
2021/12/27 05:32:05;;;;;;;14.43;6.72;;;;;;;1.57;55.46;99552.78;4312844;33;34003;-89
2021/12/27 05:34:36;;;;;;;14.48;6.97;;;;;;;1.59;55.49;99551.91;4314272;33;33161;-88
2021/12/27 05:37:04;;;;;;;13.73;6.93;;;;;;;1.59;55.61;99546.72;4326529;33;33769;-89
2021/12/27 05:39:33;;;;;;;17.30;6.78;;;;;;;1.63;55.68;99545.81;4315044;33;32715;-89
2021/12/27 05:42:00;;;;;;;18.30;7.43;;;;;;;1.64;55.68;99541.44;4314181;33;33025;-89
2021/12/27 05:44:28;;;;;;;16.02;6.90;;;;;;;1.63;55.90;99542.34;4326607;33;32566;-89
2021/12/27 05:46:56;;;;;;;16.83;7.00;;;;;;;1.56;56.52;99546.72;4324363;33;34045;-89
2021/12/27 05:49:24;;;;;;;12.37;6.65;;;;;;;1.74;55.76;99540.47;4315866;33;32315;-89
2021/12/27 05:51:52;;;;;;;13.27;6.32;;;;;;;2.04;54.81;99545.28;4339116;33;33004;-89
2021/12/27 05:54:21;;;;;;;13.70;7.12;;;;;;;1.95;55.07;99539.34;4314524;33;32917;-89
2021/12/27 05:56:50;;;;;;;12.90;6.30;;;;;;;1.81;55.80;99552.53;4325231;33;33465;-89
2021/12/27 05:59:17;;;;;;;15.88;7.53;;;;;;;1.74;55.98;99546.53;4312502;33;32646;-88
2021/12/27 06:01:45;;;;;;;29.58;13.85;;;;;;;1.64;56.51;99546.66;4326607;33;32691;-89
2021/12/27 06:04:14;;;;;;;16.75;9.27;;;;;;;1.89;55.39;99534.19;4326656;33;33273;-88
2021/12/27 06:06:41;;;;;;;13.23;7.18;;;;;;;1.86;53.93;99534.25;4340318;33;33146;-87
2021/12/27 06:09:09;;;;;;;14.65;6.18;;;;;;;2.08;53.46;99525.25;4339249;33;34051;-88
2021/12/27 06:11:37;;;;;;;12.45;6.80;;;;;;;2.26;53.23;99525.00;4312605;33;33101;-88
2021/12/27 06:14:04;;;;;;;13.93;6.68;;;;;;;2.28;54.17;99528.47;4316418;33;33914;-88
2021/12/27 06:16:32;;;;;;;11.18;6.05;;;;;;;2.27;54.64;99529.31;4313054;33;33499;-88
2021/12/27 06:19:00;;;;;;;17.45;7.03;;;;;;;1.91;56.10;99525.50;4319333;33;33741;-86
2021/12/27 06:21:27;;;;;;;12.32;5.65;;;;;;;1.79;56.74;99529.09;4337516;33;33364;-86
2021/12/27 06:23:55;;;;;;;12.88;6.50;;;;;;;2.04;55.77;99520.97;4319251;33;33382;-86
2021/12/27 06:26:23;;;;;;;19.67;6.68;;;;;;;2.27;54.66;99521.50;4326596;33;33607;-86
2021/12/27 06:28:50;;;;;;;20.50;7.93;;;;;;;2.20;54.64;99519.88;4339490;33;32379;-86
2021/12/27 06:31:19;;;;;;;17.35;7.93;;;;;;;2.07;55.22;99520.09;4327631;33;32467;-86
2021/12/27 06:33:48;;;;;;;15.77;7.87;;;;;;;2.12;55.36;99521.72;4310392;33;33185;-86
2021/12/27 06:36:15;;;;;;;24.30;8.27;;;;;;;1.96;56.08;99525.44;4316940;33;34052;-86
2021/12/27 06:38:43;;;;;;;19.00;9.48;;;;;;;1.90;56.21;99526.38;4293428;33;32979;-87
2021/12/27 06:41:11;;;;;;;20.08;8.65;;;;;;;2.14;55.18;99524.34;4292369;33;34753;-90
2021/12/27 06:43:39;;;;;;;24.77;8.55;;;;;;;2.42;53.86;99514.34;4317032;33;32540;-90
2021/12/27 06:46:07;;;;;;;18.65;8.32;;;;;;;2.49;53.49;99506.41;4316787;33;33245;-90
2021/12/27 06:48:35;;;;;;;19.00;9.52;;;;;;;2.09;55.01;99511.38;4304792;33;31788;-90
2021/12/27 06:51:03;;;;;;;15.10;7.93;;;;;;;1.85;55.93;99515.16;4316585;33;33486;-90
2021/12/27 06:53:31;;;;;;;20.90;8.10;;;;;;;2.00;55.57;99512.38;4304984;33;33088;-88
2021/12/27 06:55:59;;;;;;;15.05;7.40;;;;;;;1.94;56.17;99511.56;4316647;33;32811;-90
2021/12/27 06:58:28;;;;;;;19.65;9.82;;;;;;;2.42;53.99;99509.12;4304816;33;31956;-90
2021/12/27 07:00:58;;;;;;;19.80;8.38;;;;;;;2.13;55.39;99513.03;4317375;33;33656;-90
2021/12/27 07:03:28;;;;;;;14.65;7.78;;;;;;;2.15;55.15;99520.84;4309236;33;33696;-86
2021/12/27 07:05:56;;;;;;;19.48;8.57;;;;;;;2.20;55.50;99516.44;4315504;33;33536;-86
2021/12/27 07:08:23;;;;;;;19.50;6.65;;;;;;;2.23;55.16;99514.66;4316136;33;33678;-86
2021/12/27 07:10:51;;;;;;;17.20;6.85;;;;;;;2.22;55.37;99517.25;4307820;33;33876;-85
2021/12/27 07:13:20;;;;;;;20.10;7.30;;;;;;;2.29;54.96;99519.75;4328704;33;33184;-86
2021/12/27 07:15:48;;;;;;;15.75;7.12;;;;;;;2.42;55.11;99519.56;4315758;33;34473;-85
2021/12/27 07:18:23;;;;;;;15.95;6.85;;;;;;;2.55;54.43;99511.53;4303214;33;32266;-86
2021/12/27 07:20:52;;;;;;;12.68;5.45;;;;;;;2.49;54.86;99510.78;4304486;33;33734;-86
2021/12/27 07:23:19;;;;;;;14.80;7.28;;;;;;;2.68;54.04;99511.34;4303071;33;33251;-87
2021/12/27 07:25:48;;;;;;;11.25;5.62;;;;;;;2.59;54.33;99514.09;4327030;33;34133;-89
2021/12/27 07:28:16;;;;;;;15.02;8.07;;;;;;;2.46;54.88;99503.00;4304018;33;33452;-89
2021/12/27 07:30:45;;;;;;;17.70;8.80;;;;;;;2.47;55.62;99520.34;4315759;33;33425;-89
2021/12/27 07:33:12;;;;;;;19.95;8.38;;;;;;;2.89;54.01;99523.16;4315391;33;35211;-89
2021/12/27 07:35:40;;;;;;;16.75;8.75;;;;;;;2.93;53.32;99523.06;4318007;33;33486;-89
2021/12/27 07:38:08;;;;;;;15.00;7.05;;;;;;;2.42;54.93;99524.78;4320127;33;33418;-89
2021/12/27 07:40:36;;;;;;;11.55;7.05;;;;;;;2.93;52.72;99527.44;4319878;33;32796;-89
2021/12/27 07:43:04;;;;;;;15.55;6.97;;;;;;;2.92;52.67;99523.09;4315098;33;32711;-89
2021/12/27 07:45:32;;;;;;;15.90;7.68;;;;;;;2.91;51.96;99524.00;4308615;33;32352;-89
2021/12/27 07:48:01;;;;;;;17.50;8.77;;;;;;;2.76;52.23;99523.38;4320123;33;32478;-89
2021/12/27 07:50:28;;;;;;;23.90;9.98;;;;;;;2.50;53.90;99521.16;4308276;33;33066;-88
2021/12/27 07:52:56;;;;;;;24.23;9.20;;;;;;;2.82;52.86;99511.97;4319956;33;33000;-89
2021/12/27 07:55:27;;;;;;;21.80;10.68;;;;;;;2.64;53.66;99517.50;4319048;33;33214;-88
2021/12/27 07:57:58;;;;;;;19.33;9.70;;;;;;;2.67;54.14;99526.13;4320519;33;32664;-89
2021/12/27 08:00:26;;;;;;;17.42;9.15;;;;;;;2.91;52.72;99519.66;4320616;33;33206;-89
2021/12/27 08:02:54;;;;;;;16.48;8.35;;;;;;;2.97;52.63;99513.47;4307618;33;33999;-89
2021/12/27 08:05:22;;;;;;;20.80;8.98;;;;;;;3.00;52.33;99503.84;4320088;33;33191;-89
2021/12/27 08:07:50;;;;;;;20.25;9.43;;;;;;;3.01;52.53;99512.53;4319735;33;32557;-89
2021/12/27 08:10:19;;;;;;;22.42;11.10;;;;;;;3.01;52.34;99509.91;4319390;33;33712;-89
2021/12/27 08:12:47;;;;;;;24.10;10.07;;;;;;;2.92;52.75;99516.16;4307264;33;33062;-89
2021/12/27 08:15:21;;;;;;;23.35;10.52;;;;;;;3.25;52.12;99504.25;4314275;33;32785;-89
2021/12/27 08:17:49;;;;;;;23.52;10.18;;;;;;;3.11;52.39;99506.25;4313588;33;31980;-89
2021/12/27 08:20:17;;;;;;;20.33;9.30;;;;;;;3.14;52.47;99505.34;4320451;33;32829;-89
2021/12/27 08:22:45;;;;;;;20.35;9.57;;;;;;;3.30;52.03;99502.41;4319788;33;33523;-89
2021/12/27 08:25:14;;;;;;;18.70;8.90;;;;;;;3.35;51.79;99499.72;4319511;33;32728;-88
2021/12/27 08:27:42;;;;;;;14.70;7.40;;;;;;;3.51;50.70;99497.66;4307761;33;33816;-88
2021/12/27 08:30:10;;;;;;;16.58;8.93;;;;;;;3.42;49.83;99503.06;4307858;33;32163;-89
2021/12/27 08:32:40;;;;;;;13.77;7.07;;;;;;;3.50;48.33;99493.31;4307372;33;32645;-88
2021/12/27 08:35:09;;;;;;;19.83;7.78;;;;;;;3.47;49.13;99499.47;4318818;33;33488;-89
2021/12/27 08:37:38;;;;;;;18.77;8.90;;;;;;;3.40;49.05;99502.22;4331528;33;33759;-88
2021/12/27 08:40:07;;;;;;;13.95;7.50;;;;;;;3.68;46.49;99506.00;4317938;33;35449;-88
2021/12/27 08:42:35;;;;;;;12.82;7.32;;;;;;;3.65;46.86;99513.03;4317425;33;32847;-88
2021/12/27 08:45:03;;;;;;;15.35;6.62;;;;;;;3.77;46.73;99511.03;4308198;33;33059;-88
2021/12/27 08:47:32;;;;;;;15.75;6.18;;;;;;;3.95;43.64;99517.66;4316348;33;32622;-88
2021/12/27 08:50:00;;;;;;;11.90;5.50;;;;;;;3.92;42.99;99516.84;4316805;33;32570;-88
2021/12/27 08:52:33;;;;;;;12.37;5.90;;;;;;;3.58;42.45;99521.00;4316899;33;36073;-88
2021/12/27 08:55:02;;;;;;;12.57;6.55;;;;;;;3.78;42.58;99523.22;4317673;33;32774;-89
2021/12/27 08:57:32;;;;;;;12.45;6.35;;;;;;;3.73;43.13;99527.66;4316951;33;32892;-89
2021/12/27 09:00:02;;;;;;;16.65;7.12;;;;;;;3.69;43.01;99523.38;4304568;33;33370;-90
2021/12/27 09:02:31;;;;;;;11.27;5.97;;;;;;;3.75;42.64;99520.69;4319950;33;32798;-91
2021/12/27 09:05:31;;;;;;;11.30;5.55;;;;;;;3.90;42.08;99516.88;4308258;33;32183;-91
2021/12/27 09:08:00;;;;;;;12.50;5.90;;;;;;;3.69;43.44;99520.78;4307377;33;32016;-90
2021/12/27 09:10:32;;;;;;;8.45;5.45;;;;;;;3.67;42.33;99519.09;4307877;33;33890;-90
2021/12/27 09:13:12;;;;;;;8.15;4.55;;;;;;;3.99;39.65;99521.06;4291665;33;32897;-91
2021/12/27 09:15:51;;;;;;;10.88;4.68;;;;;;;3.96;40.30;99514.13;4325727;33;32346;-91
2021/12/27 09:18:35;;;;;;;9.75;4.37;;;;;;;3.19;40.81;99517.41;4337556;33;32306;-91
2021/12/27 09:21:38;;;;;;;;;;;;;;;3.40;40.26;99517.88;4340084;33;33095;-90
2021/12/27 09:24:07;;;;;;;8.68;4.15;;;;;;;3.79;40.24;99514.47;4346042;32;34643;-94
2021/12/27 09:26:58;;;;;;;10.00;5.22;;;;;;;3.55;40.09;99513.22;4319904;33;33885;-93
2021/12/27 09:29:50;;;;;;;13.88;4.68;;;;;;;3.89;38.08;99511.66;4335496;33;33333;-91
2021/12/27 09:32:41;;;;;;;7.93;4.47;;;;;;;3.80;39.96;99508.38;4342871;33;20163;-93
2021/12/27 09:35:21;;;;;;;7.18;3.85;;;;;;;3.72;39.06;99499.84;4288598;33;216034;-93
2021/12/27 09:38:14;;;;;;;9.32;4.45;;;;;;;3.68;39.09;99498.19;4316162;33;32788;-93
2021/12/27 09:40:53;;;;;;;7.30;4.07;;;;;;;3.54;39.40;99489.78;4338089;32;32487;-90
2021/12/27 09:43:46;;;;;;;6.55;3.83;;;;;;;3.24;40.03;99494.69;4345697;33;32643;-91
2021/12/27 09:46:26;;;;;;;9.20;4.22;;;;;;;3.81;38.50;99494.44;4316375;33;32763;-91
2021/12/27 09:53:40;;;;;;;8.75;3.75;;;;;;;3.89;37.77;99480.31;4336179;33;34104;-93
2021/12/27 09:56:32;;;;;;;11.02;3.95;;;;;;;3.98;39.98;99480.13;4333480;33;33728;-93
2021/12/27 09:59:06;;;;;;;8.05;3.50;;;;;;;4.41;37.15;99484.38;4322680;33;34483;-93
2021/12/27 10:02:01;;;;;;;7.78;3.95;;;;;;;4.19;36.00;99473.59;4317847;33;34386;-90
2021/12/27 10:04:54;;;;;;;11.35;4.68;;;;;;;3.93;37.29;99471.53;4333355;33;20111;-91
2021/12/27 10:07:41;;;;;;;7.07;3.55;;;;;;;3.83;40.00;99471.72;4326401;33;34084;-91
2021/12/27 10:10:35;;;;;;;8.73;4.20;;;;;;;3.70;37.34;99469.41;4353756;32;33513;-92
2021/12/27 10:13:14;;;;;;;7.28;3.42;;;;;;;3.74;37.83;99469.31;4323991;33;33228;-92
2021/12/27 10:16:14;;;;;;;12.13;4.15;;;;;;;4.06;36.19;99470.38;4329107;33;34698;-91
2021/12/27 10:18:55;;;;;;;6.60;3.85;;;;;;;4.18;35.52;99475.34;4327980;32;33580;-90
2021/12/27 10:21:41;;;;;;;6.37;2.95;;;;;;;4.26;34.33;99478.59;4339065;32;33223;-93
2021/12/27 10:24:33;;;;;;;7.90;3.35;;;;;;;3.97;36.69;99463.59;4318390;33;32864;-90
2021/12/27 10:27:12;;;;;;;6.55;3.87;;;;;;;3.82;36.14;99467.41;4345484;33;31895;-93
2021/12/27 10:30:16;;;;;;;;;;;;;;;4.40;35.84;99470.44;4300338;33;32952;-91
2021/12/27 10:33:09;;;;;;;8.90;4.05;;;;;;;4.47;33.67;99464.19;4314135;33;32981;-91
2021/12/27 10:36:01;;;;;;;7.03;4.15;;;;;;;4.42;33.95;99470.44;4345448;32;32927;-92
2021/12/27 10:38:41;;;;;;;8.77;4.18;;;;;;;4.39;35.75;99473.09;4341373;33;32558;-93
2021/12/27 10:41:36;;;;;;;6.93;3.87;;;;;;;4.66;35.56;99467.22;4322281;33;33663;-93
2021/12/27 10:44:18;;;;;;;6.43;3.95;;;;;;;4.50;37.54;99469.31;4335855;33;33185;-93
2021/12/27 10:47:25;;;;;;;10.57;3.37;;;;;;;4.26;35.89;99465.53;4297431;33;33646;-92
2021/12/27 10:50:11;;;;;;;10.05;3.60;;;;;;;4.84;33.42;99465.88;4357284;32;33312;-93
2021/12/27 10:53:05;;;;;;;9.05;4.20;;;;;;;4.89;33.89;99461.41;4312117;33;33759;-91
2021/12/27 10:55:48;;;;;;;5.97;3.45;;;;;;;4.51;35.76;99470.19;4327665;33;33365;-93
2021/12/27 10:58:51;;;;;;;11.43;3.47;;;;;;;5.00;33.67;99463.72;4309153;33;34349;-93
2021/12/27 11:01:30;;;;;;;6.53;4.15;;;;;;;5.21;32.54;99455.28;4351225;32;32306;-93
2021/12/27 11:04:24;;;;;;;7.68;4.65;;;;;;;4.93;32.96;99456.94;4337451;33;35207;-93
2021/12/27 11:07:06;;;;;;;10.38;3.50;;;;;;;4.41;34.24;99447.78;4332689;33;34613;-93
2021/12/27 11:09:58;;;;;;;9.93;5.07;;;;;;;4.66;35.20;99453.28;4315301;33;33156;-93
2021/12/27 11:12:38;;;;;;;11.02;4.90;;;;;;;4.91;34.73;99448.28;4337304;32;32231;-91
2021/12/27 11:15:30;;;;;;;9.10;5.30;;;;;;;4.96;35.00;99443.78;4347058;33;32714;-91
2021/12/27 11:18:09;;;;;;;15.13;5.53;;;;;;;5.23;33.74;99435.19;4304954;33;33370;-93
2021/12/27 11:20:53;;;;;;;11.85;5.22;;;;;;;5.41;33.38;99449.50;4299635;33;33977;-94
2021/12/27 11:23:41;;;;;;;14.43;5.50;;;;;;;5.18;35.74;99444.06;4297045;33;32890;-93
2021/12/27 11:26:35;;;;;;;15.30;5.72;;;;;;;5.52;34.42;99433.50;4319271;32;32217;-91
2021/12/27 11:29:17;;;;;;;11.10;5.18;;;;;;;5.35;33.18;99426.97;4327883;32;32788;-95
2021/12/27 11:32:17;;;;;;;13.18;5.90;;;;;;;5.10;33.96;99425.94;4305574;33;32788;-95
2021/12/27 11:34:59;;;;;;;9.93;4.82;;;;;;;4.72;35.96;99438.28;4328920;33;34507;-95
2021/12/27 11:37:52;;;;;;;8.13;4.80;;;;;;;4.60;37.75;99434.25;4344081;32;32913;-95
2021/12/27 11:40:49;;;;;;;11.12;4.55;;;;;;;5.19;34.24;99419.59;4303365;33;33352;-93
2021/12/27 11:43:52;;;;;;;9.48;4.35;;;;;;;5.28;34.15;99414.97;4344017;32;32679;-95
2021/12/27 11:46:51;;;;;;;10.13;4.50;;;;;;;5.13;33.85;99418.88;4319894;33;32804;-95
2021/12/27 11:49:50;;;;;;;10.50;5.25;;;;;;;5.11;34.29;99422.41;4333296;33;34534;-95
2021/12/27 11:52:34;;;;;;;8.20;4.62;;;;;;;5.21;33.09;99416.03;4332183;33;32551;-95
2021/12/27 11:55:38;;;;;;;15.48;5.65;;;;;;;5.01;33.84;99407.88;4332918;33;33735;-95
2021/12/27 11:58:34;;;;;;;11.88;5.97;;;;;;;4.59;37.72;99410.72;4346635;33;32904;-95
2021/12/27 12:01:34;;;;;;;7.53;4.07;;;;;;;4.61;38.53;99415.03;4333669;33;32645;-95
2021/12/27 12:04:47;;;;;;;48.92;15.55;;;;;;;4.92;38.15;99413.34;4336066;33;32764;-96
2021/12/27 12:07:32;;;;;;;19.87;7.85;;;;;;;5.29;36.05;99403.59;4335758;33;32807;-96
2021/12/27 12:10:23;;;;;;;15.32;6.75;;;;;;;5.40;35.13;99396.28;4333335;33;32809;-95
2021/12/27 12:13:23;;;;;;;12.20;5.35;;;;;;;5.40;36.98;99396.28;4340502;32;34262;-96
2021/12/27 12:16:18;;;;;;;11.15;5.05;;;;;;;5.06;36.34;99391.13;4332847;33;34509;-95
2021/12/27 12:18:58;;;;;;;13.50;6.35;;;;;;;4.85;38.22;99389.13;4337803;32;33047;-94
2021/12/27 12:21:52;;;;;;;18.75;6.72;;;;;;;5.48;36.44;99382.09;4372060;32;32241;-96
2021/12/27 12:24:31;;;;;;;13.65;6.62;;;;;;;5.57;36.27;99373.97;4348265;32;33426;-96